Time;durP1;ratioP1;P1;durP2;ratioP2;P2;SDS_P1;SDS_P2;PMS_P1;PMS_P2;Temp;Humidity;BMP_temperature;BMP_pressure;BME280_temperature;BME280_humidity;BME280_pressure;Samples;Min_cycle;Max_cycle;Signal;HPM_P1;HPM_P2
2022/08/16 00:01:10;;;;;;;2.58;2.38;;;18.20;99.90;;;;;;5008206;28;20036;-73
2022/08/16 00:03:43;;;;;;;4.85;2.65;;;18.20;99.90;;;;;;4993141;28;20033;-75
2022/08/16 00:06:15;;;;;;;3.95;2.45;;;18.10;99.90;;;;;;5008098;28;20056;-72
2022/08/16 00:08:47;;;;;;;4.65;2.50;;;18.10;99.90;;;;;;5021028;28;20520;-72
2022/08/16 00:11:14;;;;;;;3.90;2.85;;;18.10;99.90;;;;;;5018148;28;20049;-72
2022/08/16 00:13:49;;;;;;;2.65;2.38;;;18.00;99.90;;;;;;5026061;28;20048;-71
2022/08/16 00:16:22;;;;;;;3.45;2.58;;;17.90;99.90;;;;;;5026312;28;20045;-71
2022/08/16 00:18:50;;;;;;;2.30;2.05;;;17.80;99.90;;;;;;5025315;28;20088;-72
2022/08/16 00:21:21;;;;;;;3.28;2.58;;;17.80;99.90;;;;;;5015245;28;20034;-71
2022/08/16 00:23:53;;;;;;;3.50;2.80;;;17.80;99.90;;;;;;5003463;28;20062;-72
2022/08/16 00:26:25;;;;;;;4.07;2.75;;;17.80;99.90;;;;;;5010165;28;20140;-72
2022/08/16 00:28:57;;;;;;;2.95;2.58;;;17.70;99.90;;;;;;4994809;28;20041;-72
2022/08/16 00:31:31;;;;;;;4.53;2.42;;;17.60;99.90;;;;;;5034350;28;20103;-72
2022/08/16 00:34:03;;;;;;;3.33;2.50;;;17.50;99.90;;;;;;5009569;28;20043;-72
2022/08/16 00:36:30;;;;;;;4.47;3.00;;;17.40;99.90;;;;;;5005415;28;20048;-72
2022/08/16 00:39:03;;;;;;;2.75;2.40;;;17.30;99.90;;;;;;5025652;28;20049;-71
2022/08/16 00:41:35;;;;;;;3.47;2.72;;;17.20;99.90;;;;;;5010544;28;20053;-72
2022/08/16 00:44:09;;;;;;;2.97;2.67;;;17.10;99.90;;;;;;5013098;28;20495;-72
2022/08/16 00:46:52;;;;;;;2.72;2.47;;;17.10;99.90;;;;;;5031678;28;20504;-72
2022/08/16 00:49:24;;;;;;;4.28;2.40;;;17.10;99.90;;;;;;4998740;28;20049;-72
2022/08/16 00:51:56;;;;;;;2.70;2.50;;;17.10;99.90;;;;;;5039441;28;20045;-72
2022/08/16 00:54:30;;;;;;;2.80;2.35;;;17.20;99.90;;;;;;5022138;28;20052;-72
2022/08/16 00:57:03;;;;;;;5.15;2.53;;;17.30;99.90;;;;;;5024063;28;20049;-72
2022/08/16 00:59:37;;;;;;;3.17;2.67;;;17.20;99.90;;;;;;5036486;28;20069;-72
2022/08/16 01:02:10;;;;;;;2.60;2.40;;;17.20;99.90;;;;;;5030133;28;20623;-72
2022/08/16 01:04:42;;;;;;;3.60;2.33;;;17.20;99.90;;;;;;5022931;28;20041;-72
2022/08/16 01:07:13;;;;;;;3.42;3.05;;;17.20;99.90;;;;;;5014314;28;20050;-71
2022/08/16 01:09:45;;;;;;;4.57;3.85;;;17.20;99.90;;;;;;5021778;28;20045;-71
2022/08/16 01:12:19;;;;;;;3.28;2.97;;;17.20;99.90;;;;;;5040507;28;20519;-72
2022/08/16 01:14:56;;;;;;;2.90;2.50;;;17.20;99.90;;;;;;5024758;28;20099;-72
2022/08/16 01:17:30;;;;;;;2.92;2.38;;;17.20;99.90;;;;;;5041174;28;20133;-72
2022/08/16 01:20:02;;;;;;;2.88;2.47;;;17.20;99.90;;;;;;5008405;28;20065;-72
2022/08/16 01:22:51;;;;;;;3.40;2.50;;;17.20;99.90;;;;;;5020661;28;20054;-71
2022/08/16 01:25:27;;;;;;;3.92;3.10;;;17.20;99.90;;;;;;5004385;28;20046;-72
2022/08/16 01:28:03;;;;;;;2.60;2.40;;;17.10;99.90;;;;;;5027011;28;20613;-72
2022/08/16 01:30:36;;;;;;;8.05;3.70;;;17.00;99.90;;;;;;5024172;28;20064;-71
2022/08/16 01:33:09;;;;;;;2.92;2.22;;;16.90;99.90;;;;;;5012896;28;20042;-72
2022/08/16 01:35:54;;;;;;;2.50;2.30;;;16.80;99.90;;;;;;5038409;28;20050;-72
2022/08/16 01:38:35;;;;;;;4.65;2.50;;;16.70;99.90;;;;;;5038403;28;20068;-72
2022/08/16 01:41:09;;;;;;;3.20;2.60;;;16.70;99.90;;;;;;5011028;28;20060;-71
2022/08/16 01:43:42;;;;;;;3.88;2.50;;;16.60;99.90;;;;;;5045082;28;20052;-71
2022/08/16 01:46:37;;;;;;;2.70;2.42;;;16.60;99.90;;;;;;5005043;28;20744;-71
2022/08/16 01:49:26;;;;;;;2.88;2.10;;;16.60;99.90;;;;;;5011903;28;20045;-71
2022/08/16 01:52:05;;;;;;;2.90;2.10;;;16.60;99.90;;;;;;5038541;28;20439;-71
2022/08/16 01:54:42;;;;;;;6.20;2.45;;;16.60;99.90;;;;;;5040058;28;20104;-72
2022/08/16 01:57:14;;;;;;;3.75;2.25;;;16.60;99.90;;;;;;5024062;28;20045;-72
2022/08/16 01:59:41;;;;;;;2.33;2.08;;;16.70;99.90;;;;;;5006155;28;20132;-71
2022/08/16 02:02:17;;;;;;;2.08;1.88;;;16.70;99.90;;;;;;5030677;28;20049;-70
2022/08/16 02:04:49;;;;;;;3.42;3.00;;;16.60;99.90;;;;;;5026340;28;20529;-71
2022/08/16 02:07:24;;;;;;;3.33;2.42;;;16.60;99.90;;;;;;5003190;28;20037;-71
2022/08/16 02:09:55;;;;;;;2.30;2.08;;;16.60;99.90;;;;;;5019274;28;20034;-71
2022/08/16 02:12:22;;;;;;;3.30;2.30;;;16.50;99.90;;;;;;5007609;28;20033;-72
2022/08/16 02:14:54;;;;;;;2.60;2.10;;;16.50;99.90;;;;;;5025442;28;20038;-71
2022/08/16 02:17:26;;;;;;;6.05;4.65;;;16.40;99.90;;;;;;5012946;28;20065;-71
2022/08/16 02:19:58;;;;;;;5.72;4.28;;;16.40;99.90;;;;;;5006264;28;20050;-71
2022/08/16 02:22:29;;;;;;;6.35;4.82;;;16.30;99.90;;;;;;5004446;28;20510;-69
2022/08/16 02:25:07;;;;;;;4.60;3.70;;;16.30;99.90;;;;;;4991400;28;20473;-71
2022/08/16 02:27:41;;;;;;;5.35;3.95;;;16.20;99.90;;;;;;5018695;28;20033;-71
2022/08/16 02:30:17;;;;;;;4.57;3.20;;;16.20;99.90;;;;;;5006994;28;20041;-71
2022/08/16 02:32:49;;;;;;;4.38;3.50;;;16.20;99.90;;;;;;5023461;28;20041;-71
2022/08/16 02:35:24;;;;;;;4.72;4.20;;;16.20;99.90;;;;;;5004907;28;20038;-72
2022/08/16 02:37:56;;;;;;;4.85;4.13;;;16.30;99.90;;;;;;5023269;28;20119;-71
2022/08/16 02:40:28;;;;;;;5.70;5.10;;;16.30;99.90;;;;;;5032620;28;20033;-71
2022/08/16 02:43:00;;;;;;;5.75;4.63;;;16.20;99.90;;;;;;5021996;23;20045;-70
2022/08/16 02:45:32;;;;;;;3.88;3.10;;;16.20;99.90;;;;;;4994140;28;20517;-71
2022/08/16 02:48:04;;;;;;;2.75;2.38;;;16.20;99.90;;;;;;5023773;28;20490;-71
2022/08/16 02:50:36;;;;;;;2.83;2.50;;;16.20;99.90;;;;;;5011343;28;20084;-71
2022/08/16 02:53:08;;;;;;;2.45;2.20;;;16.20;99.90;;;;;;5009544;28;20065;-71
2022/08/16 02:55:40;;;;;;;3.53;2.47;;;16.20;99.90;;;;;;4990055;28;20052;-70
2022/08/16 02:58:11;;;;;;;3.85;2.00;;;16.20;99.90;;;;;;5013739;28;20073;-71
2022/08/16 03:00:43;;;;;;;2.88;2.28;;;16.20;99.90;;;;;;5024018;28;20099;-71
2022/08/16 03:03:16;;;;;;;5.32;2.20;;;16.10;99.90;;;;;;5008253;28;20061;-71
2022/08/16 03:05:50;;;;;;;2.30;2.00;;;16.10;99.90;;;;;;5003725;28;20095;-71
2022/08/16 03:08:23;;;;;;;3.88;2.65;;;16.20;99.90;;;;;;5012800;28;20292;-71
2022/08/16 03:10:55;;;;;;;4.65;4.20;;;16.20;99.90;;;;;;5007036;28;20128;-72
2022/08/16 03:13:27;;;;;;;5.03;4.20;;;16.20;99.90;;;;;;5003904;28;20753;-71
2022/08/16 03:15:59;;;;;;;5.00;4.50;;;16.20;99.90;;;;;;4994449;28;20041;-70
2022/08/16 03:18:32;;;;;;;3.75;2.53;;;16.20;99.90;;;;;;5006818;28;20037;-71
2022/08/16 03:21:06;;;;;;;2.70;1.90;;;16.20;99.90;;;;;;5011689;28;20052;-72
2022/08/16 03:23:39;;;;;;;2.70;2.17;;;16.20;99.90;;;;;;4995925;28;20041;-71
2022/08/16 03:26:12;;;;;;;2.10;1.90;;;16.10;99.90;;;;;;5029501;28;20422;-71
2022/08/16 03:28:44;;;;;;;2.50;2.00;;;16.10;99.90;;;;;;5012788;28;20132;-71
2022/08/16 03:31:16;;;;;;;2.55;2.03;;;16.10;99.90;;;;;;5004122;28;20057;-71
2022/08/16 03:33:48;;;;;;;3.50;2.13;;;16.10;99.90;;;;;;5006322;28;20100;-70
2022/08/16 03:36:20;;;;;;;3.17;2.70;;;16.10;99.90;;;;;;5012404;28;20048;-71
2022/08/16 03:38:56;;;;;;;5.53;4.22;;;16.10;99.90;;;;;;5001508;28;20045;-70
2022/08/16 03:41:28;;;;;;;5.20;4.70;;;16.00;99.90;;;;;;5009225;28;20066;-71
2022/08/16 03:44:00;;;;;;;6.45;4.88;;;16.00;99.90;;;;;;5006652;28;20136;-71
2022/08/16 03:46:35;;;;;;;5.30;4.80;;;15.90;99.90;;;;;;5010922;28;20042;-71
2022/08/16 03:49:10;;;;;;;5.82;5.15;;;15.90;99.90;;;;;;4995904;28;20072;-71
2022/08/16 03:51:45;;;;;;;4.78;4.22;;;15.80;99.90;;;;;;5004846;28;20065;-71
2022/08/16 03:54:20;;;;;;;6.47;4.43;;;15.80;99.90;;;;;;4988616;28;20129;-70
2022/08/16 03:56:52;;;;;;;5.88;4.55;;;15.80;99.90;;;;;;5025650;28;20479;-70
2022/08/16 03:59:26;;;;;;;5.72;3.92;;;15.80;99.90;;;;;;5006600;28;20041;-71
2022/08/16 04:02:05;;;;;;;7.18;4.97;;;15.70;99.90;;;;;;5010058;28;20033;-70
2022/08/16 04:04:37;;;;;;;5.25;3.60;;;15.70;99.90;;;;;;4989453;28;20049;-71
2022/08/16 04:07:09;;;;;;;5.03;3.83;;;15.70;99.90;;;;;;5033192;28;20100;-71
2022/08/16 04:09:41;;;;;;;4.82;3.85;;;15.70;99.90;;;;;;4987823;28;20107;-71
2022/08/16 04:12:13;;;;;;;6.63;4.88;;;15.60;99.90;;;;;;5006542;28;20056;-71
2022/08/16 04:14:46;;;;;;;5.50;4.82;;;15.60;99.90;;;;;;5008447;28;20042;-71
2022/08/16 04:17:17;;;;;;;4.80;3.67;;;15.70;99.90;;;;;;5020921;28;20412;-71
2022/08/16 04:19:49;;;;;;;4.85;3.60;;;15.60;99.90;;;;;;5022903;28;20042;-71
2022/08/16 04:22:22;;;;;;;3.53;3.22;;;15.50;99.90;;;;;;4992798;28;20507;-71
2022/08/16 04:24:59;;;;;;;3.70;3.17;;;15.50;99.90;;;;;;5008032;28;20034;-71
2022/08/16 04:27:32;;;;;;;3.63;3.00;;;15.50;99.90;;;;;;5012758;28;20057;-71
2022/08/16 04:30:10;;;;;;;3.65;3.13;;;15.50;99.90;;;;;;5014787;28;20136;-71
2022/08/16 04:32:47;;;;;;;3.70;2.90;;;15.40;99.90;;;;;;4995660;28;20045;-70
2022/08/16 04:35:22;;;;;;;4.30;3.05;;;15.50;99.90;;;;;;5006749;28;20573;-70
2022/08/16 04:37:54;;;;;;;3.50;2.85;;;15.40;99.90;;;;;;5006462;28;20074;-71
2022/08/16 04:40:30;;;;;;;6.15;3.03;;;15.50;99.90;;;;;;4990053;28;20056;-71
2022/08/16 04:43:03;;;;;;;5.90;3.10;;;15.40;99.90;;;;;;5004624;28;20043;-70
2022/08/16 04:45:35;;;;;;;3.33;2.70;;;15.40;99.90;;;;;;5015608;28;20033;-70
2022/08/16 04:48:11;;;;;;;3.75;2.22;;;15.40;99.90;;;;;;5011939;28;20061;-71
2022/08/16 04:50:50;;;;;;;2.58;1.92;;;15.40;99.90;;;;;;5012540;28;20046;-71
2022/08/16 04:53:31;;;;;;;2.75;2.20;;;15.40;99.90;;;;;;5013025;28;20065;-71
2022/08/16 04:56:04;;;;;;;3.63;2.03;;;15.30;99.90;;;;;;5014765;28;20575;-72
2022/08/16 04:58:35;;;;;;;6.50;2.67;;;15.30;99.90;;;;;;5005088;28;20072;-71
2022/08/16 05:01:07;;;;;;;2.97;2.30;;;15.40;99.90;;;;;;5008083;28;20221;-71
2022/08/16 05:03:39;;;;;;;3.30;2.42;;;15.40;99.90;;;;;;5002409;28;20538;-71
2022/08/16 05:06:12;;;;;;;4.63;2.30;;;15.50;99.90;;;;;;4999096;28;20499;-71
2022/08/16 05:08:39;;;;;;;5.25;2.53;;;15.50;99.90;;;;;;5003854;28;20080;-71
2022/08/16 05:11:15;;;;;;;8.88;2.65;;;15.50;99.90;;;;;;4992341;28;20042;-71
2022/08/16 05:13:48;;;;;;;3.17;2.67;;;15.60;99.90;;;;;;5006483;28;20077;-71
2022/08/16 05:16:26;;;;;;;11.18;2.78;;;15.60;99.90;;;;;;5014765;28;20053;-71
2022/08/16 05:19:05;;;;;;;;;;;15.60;99.90;;;;;;5023532;28;20050;-71
2022/08/16 05:21:39;;;;;;;3.22;2.35;;;15.70;99.90;;;;;;5017909;28;19921;-72
2022/08/16 05:24:11;;;;;;;2.53;2.15;;;15.80;99.90;;;;;;5022651;28;20111;-72
2022/08/16 05:26:43;;;;;;;2.30;1.98;;;15.90;99.90;;;;;;5014833;28;20132;-71
2022/08/16 05:29:16;;;;;;;3.53;2.15;;;15.90;99.90;;;;;;4998620;28;20054;-71
2022/08/16 05:32:01;;;;;;;7.45;4.43;;;16.00;99.90;;;;;;5004963;28;20511;-71
2022/08/16 05:34:33;;;;;;;15.30;6.87;;;16.00;99.90;;;;;;4991657;28;20507;-71
2022/08/16 05:37:05;;;;;;;8.57;5.45;;;16.10;99.90;;;;;;4993973;28;20049;-71
2022/08/16 05:39:37;;;;;;;7.18;5.38;;;16.10;99.90;;;;;;4988274;28;20049;-72
2022/08/16 05:42:08;;;;;;;11.35;6.97;;;16.10;99.90;;;;;;5026493;28;20028;-71
2022/08/16 05:44:41;;;;;;;12.45;7.82;;;16.10;99.90;;;;;;5034935;28;20029;-71
2022/08/16 05:47:13;;;;;;;12.73;7.15;;;16.10;99.90;;;;;;5030987;28;20045;-72
2022/08/16 05:49:45;;;;;;;16.58;7.45;;;16.10;99.90;;;;;;4998064;28;20061;-71
2022/08/16 05:52:12;;;;;;;10.55;6.35;;;16.20;99.90;;;;;;5002824;28;20045;-71
2022/08/16 05:54:44;;;;;;;8.70;6.32;;;16.20;99.90;;;;;;5005366;28;20057;-71
2022/08/16 05:57:18;;;;;;;;;;;16.20;99.90;;;;;;5007809;28;20127;-71
2022/08/16 05:59:51;;;;;;;9.77;6.97;;;16.20;99.90;;;;;;5011413;28;20041;-71
2022/08/16 06:02:26;;;;;;;9.30;6.05;;;16.10;99.90;;;;;;5013472;28;20046;-71
2022/08/16 06:04:58;;;;;;;8.32;5.75;;;16.10;99.90;;;;;;5009891;28;20060;-71
2022/08/16 06:07:30;;;;;;;7.45;6.00;;;16.10;99.90;;;;;;5011392;28;20069;-71
2022/08/16 06:10:08;;;;;;;7.40;6.47;;;16.10;99.90;;;;;;5011189;28;20045;-71
2022/08/16 06:12:40;;;;;;;7.65;6.15;;;16.20;99.90;;;;;;5009513;28;20066;-72
2022/08/16 06:15:17;;;;;;;8.97;6.50;;;16.20;99.90;;;;;;5000213;28;20042;-70
2022/08/16 06:17:49;;;;;;;7.05;6.35;;;16.20;99.90;;;;;;5005349;28;20048;-71
2022/08/16 06:20:27;;;;;;;8.38;5.97;;;16.30;99.90;;;;;;5005517;28;20041;-71
2022/08/16 06:22:58;;;;;;;6.78;5.30;;;16.40;99.90;;;;;;5010724;28;20385;-72
2022/08/16 06:25:39;;;;;;;7.45;5.05;;;16.40;99.90;;;;;;5006900;28;20044;-73
2022/08/16 06:28:11;;;;;;;7.63;5.60;;;16.50;99.90;;;;;;5011767;28;20048;-71
2022/08/16 06:30:44;;;;;;;6.88;5.75;;;16.50;99.90;;;;;;5002735;28;20045;-71
2022/08/16 06:33:18;;;;;;;5.95;5.30;;;16.60;99.90;;;;;;5012341;28;20033;-71
2022/08/16 06:35:53;;;;;;;8.52;5.30;;;16.70;99.90;;;;;;5009780;28;20049;-71
2022/08/16 06:38:21;;;;;;;6.50;5.65;;;16.70;99.90;;;;;;5011917;28;20072;-73
2022/08/16 06:40:53;;;;;;;5.90;5.30;;;16.80;99.90;;;;;;5010741;28;20041;-71
2022/08/16 06:43:25;;;;;;;8.05;5.20;;;16.90;99.90;;;;;;5024135;28;20402;-70
2022/08/16 06:46:03;;;;;;;6.30;5.43;;;17.00;99.90;;;;;;5015112;28;20037;-70
2022/08/16 06:48:36;;;;;;;6.22;5.35;;;17.00;99.90;;;;;;5009636;28;20132;-71
2022/08/16 06:51:07;;;;;;;7.70;5.80;;;17.10;99.90;;;;;;5010532;28;20045;-71
2022/08/16 06:53:39;;;;;;;6.05;5.32;;;17.20;99.90;;;;;;5023134;28;20877;-71
2022/08/16 06:56:11;;;;;;;6.97;5.70;;;17.30;99.90;;;;;;5012106;28;20531;-71
2022/08/16 06:58:57;;;;;;;7.20;4.85;;;17.40;99.90;;;;;;5025283;28;20037;-71
2022/08/16 07:01:34;;;;;;;7.38;5.35;;;17.50;99.90;;;;;;5012209;28;20041;-71
2022/08/16 07:04:06;;;;;;;6.43;4.90;;;17.70;99.90;;;;;;5011188;28;20034;-72
2022/08/16 07:06:34;;;;;;;4.78;4.28;;;17.70;99.90;;;;;;5003410;28;20053;-71
2022/08/16 07:09:13;;;;;;;4.55;3.70;;;17.90;99.90;;;;;;5010241;28;20037;-72
2022/08/16 07:11:46;;;;;;;4.53;4.13;;;18.00;99.90;;;;;;5009968;28;20474;-72
2022/08/16 07:14:28;;;;;;;5.63;4.50;;;18.10;99.90;;;;;;5003736;28;20049;-72
2022/08/16 07:17:00;;;;;;;5.15;4.00;;;18.20;99.90;;;;;;5016245;28;20042;-71
2022/08/16 07:19:32;;;;;;;7.63;3.83;;;18.30;99.90;;;;;;5003838;28;20044;-71
2022/08/16 07:22:04;;;;;;;4.93;3.65;;;18.40;99.90;;;;;;5003194;28;20093;-71
2022/08/16 07:24:36;;;;;;;5.18;4.00;;;18.60;99.90;;;;;;4993324;28;20049;-73
2022/08/16 07:27:08;;;;;;;6.88;3.70;;;18.70;99.90;;;;;;5007403;28;20068;-71
2022/08/16 07:29:40;;;;;;;4.40;3.70;;;18.80;99.90;;;;;;4994635;28;20475;-71
2022/08/16 07:32:12;;;;;;;4.30;3.65;;;18.90;99.90;;;;;;5011183;28;20072;-71
2022/08/16 07:34:44;;;;;;;4.63;3.92;;;19.00;99.90;;;;;;5010568;28;20530;-71
2022/08/16 07:37:17;;;;;;;4.80;3.65;;;19.10;99.90;;;;;;4991165;28;20088;-71
2022/08/16 07:40:01;;;;;;;3.70;3.17;;;19.10;99.90;;;;;;5012324;28;20063;-74
2022/08/16 07:42:32;;;;;;;5.00;3.80;;;19.30;99.90;;;;;;5010360;28;20163;-72
2022/08/16 07:45:05;;;;;;;5.50;3.80;;;19.40;99.90;;;;;;4994040;28;20041;-71
2022/08/16 07:47:43;;;;;;;4.20;3.40;;;19.50;99.90;;;;;;5003780;28;20048;-71
2022/08/16 07:50:15;;;;;;;4.68;3.45;;;19.60;99.90;;;;;;5035829;28;20041;-71
2022/08/16 07:52:48;;;;;;;5.00;3.53;;;19.70;99.90;;;;;;5014067;28;20168;-71
2022/08/16 07:55:20;;;;;;;5.32;3.33;;;19.80;99.90;;;;;;5011566;28;20411;-71
2022/08/16 07:57:52;;;;;;;4.70;3.25;;;19.90;99.90;;;;;;5016041;28;20105;-72
2022/08/16 08:00:19;;;;;;;4.13;3.38;;;20.00;99.90;;;;;;5009736;28;20140;-72
2022/08/16 08:02:52;;;;;;;3.63;3.27;;;20.10;99.90;;;;;;4999576;28;20326;-71
2022/08/16 08:05:23;;;;;;;5.55;3.72;;;20.20;99.90;;;;;;5032681;28;20338;-71
2022/08/16 08:07:55;;;;;;;4.28;3.58;;;20.40;99.90;;;;;;5016994;28;20140;-72
2022/08/16 08:10:28;;;;;;;8.50;7.55;;;20.50;99.90;;;;;;4998269;28;20464;-71
2022/08/16 08:13:00;;;;;;;6.20;4.03;;;20.60;99.90;;;;;;4991723;28;20587;-71
2022/08/16 08:15:32;;;;;;;4.20;3.80;;;20.70;99.90;;;;;;5000826;28;20453;-71
2022/08/16 08:18:04;;;;;;;4.00;3.63;;;20.80;99.90;;;;;;4997787;28;20061;-72
2022/08/16 08:20:36;;;;;;;3.58;3.28;;;20.90;99.90;;;;;;4998375;28;20038;-73
2022/08/16 08:23:08;;;;;;;4.30;3.88;;;21.00;99.90;;;;;;5010895;28;20056;-71
2022/08/16 08:25:44;;;;;;;7.10;3.72;;;21.10;99.90;;;;;;5029582;28;20041;-72
2022/08/16 08:28:17;;;;;;;;;;;21.20;99.90;;;;;;5012253;28;20065;-71
2022/08/16 08:30:52;;;;;;;5.50;4.03;;;21.40;99.90;;;;;;5000370;28;19967;-71
2022/08/16 08:33:24;;;;;;;4.10;3.70;;;21.40;99.90;;;;;;5004176;28;20056;-71
2022/08/16 08:36:02;;;;;;;4.28;3.88;;;21.50;99.90;;;;;;5011259;28;20048;-71
2022/08/16 08:38:36;;;;;;;4.63;3.33;;;21.60;99.90;;;;;;5022522;28;20565;-71
2022/08/16 08:41:08;;;;;;;4.57;3.65;;;21.70;99.90;;;;;;5005218;28;20065;-72
2022/08/16 08:43:41;;;;;;;6.90;3.40;;;21.70;99.90;;;;;;5012335;28;20416;-71
2022/08/16 08:46:14;;;;;;;4.35;3.95;;;21.80;99.90;;;;;;5012565;28;20470;-71
2022/08/16 08:48:47;;;;;;;4.10;3.70;;;22.00;99.90;;;;;;4993631;28;20471;-72
2022/08/16 08:51:19;;;;;;;4.22;3.83;;;22.00;99.90;;;;;;4997981;28;20060;-70
2022/08/16 08:53:53;;;;;;;4.38;3.97;;;22.00;99.90;;;;;;5001599;28;20124;-71
2022/08/16 08:56:31;;;;;;;5.05;3.83;;;22.10;99.90;;;;;;5007543;28;20041;-71
2022/08/16 08:59:09;;;;;;;4.95;3.92;;;22.20;99.90;;;;;;5006529;28;20048;-71
2022/08/16 09:01:42;;;;;;;7.32;3.90;;;22.30;99.90;;;;;;5006493;28;20048;-72
2022/08/16 09:04:14;;;;;;;4.97;3.50;;;22.30;99.90;;;;;;5012872;28;20087;-72
2022/08/16 09:06:47;;;;;;;6.57;4.72;;;22.40;99.90;;;;;;5006256;28;20511;-72
2022/08/16 09:09:21;;;;;;;5.05;3.88;;;22.40;99.90;;;;;;5022605;28;20099;-71
2022/08/16 09:11:56;;;;;;;4.50;3.92;;;22.40;99.90;;;;;;5016317;28;20053;-71
2022/08/16 09:14:30;;;;;;;6.72;4.28;;;22.40;99.90;;;;;;5015186;28;20072;-72
2022/08/16 09:17:02;;;;;;;4.07;3.67;;;22.30;99.90;;;;;;5017673;28;20041;-71
2022/08/16 09:19:37;;;;;;;4.70;3.70;;;22.20;99.90;;;;;;5027482;28;20423;-71
2022/08/16 09:22:10;;;;;;;5.38;3.97;;;22.30;99.90;;;;;;5005439;28;20049;-71
2022/08/16 09:24:41;;;;;;;4.35;3.80;;;22.40;99.90;;;;;;5012117;28;20084;-71
2022/08/16 09:27:14;;;;;;;4.83;3.87;;;22.70;99.90;;;;;;5014044;28;20665;-71
2022/08/16 09:29:46;;;;;;;5.53;3.83;;;22.90;99.90;;;;;;5002578;28;20060;-72
2022/08/16 09:32:18;;;;;;;4.10;3.72;;;23.00;99.90;;;;;;5012665;28;20499;-72
2022/08/16 09:34:49;;;;;;;4.53;3.67;;;23.00;99.90;;;;;;5030035;28;20519;-76
2022/08/16 09:37:21;;;;;;;4.30;3.90;;;22.90;99.90;;;;;;5000235;28;20041;-72
2022/08/16 09:39:53;;;;;;;5.00;4.40;;;22.80;99.90;;;;;;4998056;28;20042;-71
2022/08/16 09:42:26;;;;;;;4.72;4.22;;;22.80;99.90;;;;;;5029307;28;20052;-72
2022/08/16 09:44:58;;;;;;;6.05;4.18;;;22.70;99.90;;;;;;5008318;28;20042;-71
2022/08/16 09:47:30;;;;;;;5.85;3.80;;;22.70;99.90;;;;;;5010259;28;20041;-71
2022/08/16 09:50:02;;;;;;;4.30;3.90;;;22.70;99.90;;;;;;4999898;28;20044;-71
2022/08/16 09:52:36;;;;;;;4.45;4.05;;;22.70;99.90;;;;;;5004075;28;20049;-72
2022/08/16 09:55:10;;;;;;;4.53;3.60;;;22.90;99.90;;;;;;5029293;28;20072;-71
2022/08/16 09:57:42;;;;;;;4.00;3.70;;;23.00;99.90;;;;;;5008444;28;20084;-71
2022/08/16 10:00:14;;;;;;;3.97;3.58;;;23.00;99.90;;;;;;5004786;28;20037;-71
2022/08/16 10:02:46;;;;;;;4.35;3.70;;;23.10;99.90;;;;;;5012622;28;20041;-71
2022/08/16 10:05:18;;;;;;;4.13;3.65;;;23.30;99.90;;;;;;5028090;28;20052;-71
2022/08/16 10:07:53;;;;;;;5.28;3.83;;;23.40;99.90;;;;;;5008279;28;20042;-70
2022/08/16 10:10:25;;;;;;;4.35;3.50;;;23.40;99.90;;;;;;5021981;28;20060;-70
2022/08/16 10:13:13;;;;;;;6.47;3.50;;;23.40;99.90;;;;;;5004834;28;20657;-71
2022/08/16 10:15:46;;;;;;;6.10;4.10;;;23.60;99.90;;;;;;5030420;28;20056;-71
2022/08/16 10:18:18;;;;;;;6.65;3.70;;;23.90;99.90;;;;;;5030957;28;20101;-71
2022/08/16 10:20:47;;;;;;;5.05;3.60;;;24.10;99.80;;;;;;5035844;28;20052;-72
2022/08/16 10:23:20;;;;;;;7.47;3.53;;;24.30;98.50;;;;;;5007389;28;20041;-71
2022/08/16 10:25:52;;;;;;;4.78;3.60;;;24.40;97.50;;;;;;5027345;28;20044;-71
2022/08/16 10:28:25;;;;;;;7.95;4.00;;;24.60;97.40;;;;;;4992302;28;20042;-71
2022/08/16 10:30:59;;;;;;;5.05;2.90;;;24.80;97.70;;;;;;5031615;28;20041;-70
2022/08/16 10:33:27;;;;;;;4.15;3.45;;;24.90;95.70;;;;;;4998416;28;20046;-71
2022/08/16 10:36:00;;;;;;;;;;;24.80;95.70;;;;;;5028023;28;20049;-71
2022/08/16 10:38:33;;;;;;;4.37;3.13;;;24.70;95.60;;;;;;5004168;28;19922;-71
2022/08/16 10:41:06;;;;;;;5.45;3.03;;;24.60;94.30;;;;;;5013095;28;20046;-71
2022/08/16 10:43:40;;;;;;;4.07;2.92;;;24.60;93.20;;;;;;4997080;28;20049;-72
2022/08/16 10:46:13;;;;;;;3.45;3.03;;;24.60;91.90;;;;;;5016125;28;20454;-71
2022/08/16 10:48:45;;;;;;;3.03;2.70;;;24.50;92.40;;;;;;5019109;28;20048;-70
2022/08/16 10:51:17;;;;;;;3.40;3.10;;;24.70;92.10;;;;;;5026262;28;20041;-72
2022/08/16 10:53:49;;;;;;;4.15;3.42;;;25.00;92.90;;;;;;5020984;28;20050;-71
2022/08/16 10:56:24;;;;;;;6.82;4.25;;;25.30;92.80;;;;;;5042751;28;20041;-71
2022/08/16 10:58:57;;;;;;;3.50;3.20;;;25.30;91.90;;;;;;5009449;28;20038;-71
2022/08/16 11:01:29;;;;;;;5.20;3.10;;;25.20;91.80;;;;;;5024797;28;20065;-71
2022/08/16 11:03:56;;;;;;;4.53;3.30;;;25.10;91.70;;;;;;5003112;28;20412;-72
2022/08/16 11:06:28;;;;;;;3.45;3.10;;;25.00;92.10;;;;;;5031290;28;20061;-70
2022/08/16 11:09:00;;;;;;;4.03;3.50;;;24.90;92.40;;;;;;5032000;28;20074;-71
2022/08/16 11:11:32;;;;;;;3.72;3.25;;;24.90;92.60;;;;;;5013661;28;20055;-71
2022/08/16 11:14:03;;;;;;;3.72;3.25;;;25.00;92.50;;;;;;5027090;28;20052;-74
2022/08/16 11:16:36;;;;;;;4.00;3.17;;;25.00;92.10;;;;;;5014722;28;20043;-71
2022/08/16 11:19:08;;;;;;;4.45;3.90;;;25.00;91.70;;;;;;5012013;28;20045;-71
2022/08/16 11:21:42;;;;;;;4.53;3.20;;;25.00;91.90;;;;;;5017877;28;20032;-71
2022/08/16 11:24:13;;;;;;;4.90;3.28;;;24.90;91.50;;;;;;5023086;28;20518;-71
2022/08/16 11:26:45;;;;;;;3.30;3.00;;;25.00;91.00;;;;;;5003696;28;20061;-71
2022/08/16 11:29:17;;;;;;;6.40;3.92;;;25.20;91.00;;;;;;5004677;28;20064;-71
2022/08/16 11:31:49;;;;;;;3.72;3.28;;;25.30;90.40;;;;;;5031735;28;20033;-71
2022/08/16 11:34:21;;;;;;;4.43;3.40;;;25.30;90.90;;;;;;5026564;28;20400;-71
2022/08/16 11:36:53;;;;;;;3.47;3.20;;;25.20;89.70;;;;;;5001094;28;20041;-71
2022/08/16 11:39:24;;;;;;;3.40;3.03;;;25.10;90.30;;;;;;5033510;28;20041;-71
2022/08/16 11:41:57;;;;;;;4.00;3.10;;;25.10;90.20;;;;;;5006903;28;20044;-71
2022/08/16 11:44:28;;;;;;;4.43;3.10;;;25.10;90.20;;;;;;5025522;28;20645;-71
2022/08/16 11:47:00;;;;;;;3.55;3.25;;;25.10;88.90;;;;;;5024949;23;20049;-69
2022/08/16 11:49:32;;;;;;;5.63;3.15;;;25.30;88.90;;;;;;5002778;28;20045;-69
2022/08/16 11:52:03;;;;;;;3.90;3.25;;;25.60;90.50;;;;;;5008855;28;20045;-69
2022/08/16 11:54:35;;;;;;;4.35;3.20;;;26.00;90.30;;;;;;5005831;28;20153;-70
2022/08/16 11:57:07;;;;;;;5.65;3.78;;;26.10;89.20;;;;;;5025292;28;20044;-70
2022/08/16 11:59:39;;;;;;;4.50;3.10;;;26.30;88.00;;;;;;5023334;28;20038;-69
2022/08/16 12:02:11;;;;;;;3.90;3.13;;;26.40;86.10;;;;;;5012361;28;20048;-69
2022/08/16 12:04:43;;;;;;;3.90;3.40;;;26.50;84.30;;;;;;4995899;28;20068;-69
2022/08/16 12:07:15;;;;;;;3.53;3.22;;;26.60;84.90;;;;;;5025980;28;20137;-69
2022/08/16 12:09:47;;;;;;;4.15;3.60;;;26.70;84.20;;;;;;5027899;28;20041;-71
2022/08/16 12:12:20;;;;;;;4.53;3.25;;;26.70;84.30;;;;;;5027861;28;20044;-69
2022/08/16 12:14:51;;;;;;;3.42;3.13;;;26.90;82.40;;;;;;5024517;28;20506;-69
2022/08/16 12:17:23;;;;;;;4.43;3.28;;;26.90;81.10;;;;;;4985148;28;20046;-69
2022/08/16 12:19:55;;;;;;;5.53;3.17;;;26.80;81.90;;;;;;5018407;28;20042;-70
2022/08/16 12:22:28;;;;;;;4.13;3.43;;;26.80;82.10;;;;;;5027378;28;20047;-70
2022/08/16 12:25:00;;;;;;;5.57;3.47;;;27.00;82.30;;;;;;5028000;28;20380;-70
2022/08/16 12:27:32;;;;;;;3.60;3.20;;;27.00;79.60;;;;;;5007683;28;20136;-70
2022/08/16 12:30:06;;;;;;;3.58;3.22;;;27.00;80.50;;;;;;5010875;28;20037;-70
2022/08/16 12:32:38;;;;;;;5.47;3.70;;;26.90;80.80;;;;;;5010037;28;20042;-70
2022/08/16 12:35:17;;;;;;;4.25;3.38;;;26.90;81.10;;;;;;5011586;28;20068;-68
2022/08/16 12:37:50;;;;;;;10.02;4.85;;;27.00;80.40;;;;;;5031957;28;20041;-70
2022/08/16 12:40:24;;;;;;;8.93;3.88;;;27.10;80.30;;;;;;5031593;28;20132;-70
2022/08/16 12:42:58;;;;;;;9.52;3.45;;;27.20;80.40;;;;;;5014570;28;20418;-70
2022/08/16 12:45:35;;;;;;;3.75;3.00;;;27.30;80.20;;;;;;4996508;28;20064;-71
2022/08/16 12:50:59;;;;;;;4.55;3.28;;;27.60;77.50;;;;;;5032117;28;20049;-70
2022/08/16 12:53:34;;;;;;;5.32;3.25;;;27.50;78.40;;;;;;5032113;28;20045;-70
2022/08/16 12:56:09;;;;;;;3.83;3.40;;;27.50;77.90;;;;;;5029637;28;20047;-70
2022/08/16 12:58:41;;;;;;;5.65;3.17;;;27.50;77.80;;;;;;5016003;28;20053;-70
2022/08/16 13:01:13;;;;;;;5.85;3.55;;;27.60;79.10;;;;;;5010286;28;20499;-70
2022/08/16 13:03:45;;;;;;;3.50;3.20;;;27.60;76.90;;;;;;5030824;28;20037;-70
2022/08/16 13:06:17;;;;;;;4.47;3.70;;;27.70;76.10;;;;;;5030969;28;20518;-67
2022/08/16 13:08:50;;;;;;;3.83;3.45;;;27.70;76.10;;;;;;5032762;28;20076;-70
2022/08/16 13:11:31;;;;;;;4.85;3.47;;;28.00;76.90;;;;;;5032831;28;20132;-70
2022/08/16 13:14:02;;;;;;;3.90;3.50;;;28.10;75.70;;;;;;5032078;28;20037;-70
2022/08/16 13:16:35;;;;;;;3.80;3.40;;;28.10;75.70;;;;;;5031098;28;20065;-70
2022/08/16 13:19:07;;;;;;;7.00;4.03;;;28.10;74.40;;;;;;5004800;28;20042;-70
2022/08/16 13:21:38;;;;;;;3.65;3.28;;;28.20;74.80;;;;;;5027855;28;20041;-70